Forside
METAR-TAF:

METAR-TAF

Lufthavne :

Grise Fiord, Nunavut, Canada

Breddekreds: 76-25N, længdekreds: 082-54W, højde: 45 m

Aktuelle vejr

Denne rapport blev lavet for 17 minutter siden, kl. 01:00 UTC
Vind stille
Temperatur -34°C
Fugtighed 67%
Tryk 1002 hPa
Sigt: 24.1 km
Nogle få skyer i en højde af 7500 ft

METAR: CWGZ 210100Z 00000KT 15SM FEW075 M34/M38 A2960 RMK AC1 AC TR S00 AFT 17UTC/LAST STFD OBS/NEXT 211300 UTC SLP034

Tid: 20:17 (01:17 UTC)


TAF: fraværende

Vejrobservationer og prognoser fra mere end 4000 lufthavne (METAR og TAF).

De gule og røde prikker repræsenterer de meteorologiske stationer.

Flyt musen over at se navnet på stationen.

Så klik over at se vejr observationer og prognoser.

At skifte det kort: Klik på de grønne knapper med et sort kors for at zoome ind; på den grønne knap med en bindestreg for at zoome ud; eller på de grønne pile for tilstødende kort.


METAR-TAF: